KAL224 KLAX-RJAA
Flight info
| Callsign | KAL224 |
|---|---|
| Flight time | N/A |
| Altitude | 26000 |
| Route | SUMMR2 MCKEY DCT LIBBO DCT BRINY DCT BOARS DCT AMAKR DCT REDWD DCT UNVER DCT 42N130W/N0481F280 48N140W 52N150W 55N160W/N0486F300 56N170W DCT RULOY G469 NYMPH R220 NRKEY/N0485F320 R220 NANAC Y810 OLDIV Y809 SUPOK |
| Aircraft | B77L/H-SDE1E2E3FGHIJ2J3J4J5M1RWXY/LB1D1 |
Departure
| Time | 2026-04-25 01:28 |
|---|---|
| Airport | Los Angeles International Airport (KLAX) |
Arrival
| Time | N/A |
|---|---|
| Airport | Narita International Airport (RJAA) |
| Time | Latitude | Longitude | Altitude | Speed | Heading |
|---|---|---|---|---|---|
| 2026-04-25 00:56 | 33.93377 | -118.39155 | 101 ft | 0 kts | 180° |
| 2026-04-25 01:19 | 33.93399 | -118.39155 | 100 ft | 4 kts | 180° |
| 2026-04-25 01:20 | 33.93426 | -118.39154 | 100 ft | 4 kts | 180° |
| 2026-04-25 01:20 | 33.93453 | -118.39154 | 100 ft | 4 kts | 180° |
| 2026-04-25 01:20 | 33.93475 | -118.39154 | 101 ft | 4 kts | 176° |
| 2026-04-25 01:20 | 33.93499 | -118.39160 | 102 ft | 4 kts | 152° |
| 2026-04-25 01:21 | 33.93516 | -118.39176 | 102 ft | 4 kts | 113° |
| 2026-04-25 01:21 | 33.93519 | -118.39200 | 101 ft | 4 kts | 83° |
| 2026-04-25 01:21 | 33.93516 | -118.39228 | 102 ft | 2 kts | 83° |
| 2026-04-25 01:24 | 33.93523 | -118.39165 | 106 ft | 10 kts | 82° |
| 2026-04-25 01:24 | 33.93532 | -118.39079 | 106 ft | 10 kts | 82° |
| 2026-04-25 01:24 | 33.93542 | -118.38993 | 105 ft | 10 kts | 83° |
| 2026-04-25 01:24 | 33.93551 | -118.38908 | 107 ft | 10 kts | 83° |
| 2026-04-25 01:25 | 33.93559 | -118.38822 | 104 ft | 10 kts | 83° |
| 2026-04-25 01:25 | 33.93568 | -118.38737 | 105 ft | 10 kts | 83° |
| 2026-04-25 01:25 | 33.93578 | -118.38651 | 107 ft | 10 kts | 82° |
| 2026-04-25 01:25 | 33.93588 | -118.38567 | 105 ft | 10 kts | 82° |
| 2026-04-25 01:26 | 33.93595 | -118.38492 | 107 ft | 9 kts | 84° |
| 2026-04-25 01:26 | 33.93602 | -118.38420 | 104 ft | 8 kts | 83° |
| 2026-04-25 01:26 | 33.93609 | -118.38350 | 107 ft | 8 kts | 83° |
| 2026-04-25 01:26 | 33.93640 | -118.38291 | 108 ft | 9 kts | 24° |
| 2026-04-25 01:27 | 33.93699 | -118.38288 | 111 ft | 9 kts | 341° |
| 2026-04-25 01:27 | 33.93729 | -118.38343 | 112 ft | 8 kts | 278° |
| 2026-04-25 01:27 | 33.93725 | -118.38395 | 111 ft | 5 kts | 264° |
| 2026-04-25 01:28 | 33.93674 | -118.38898 | 110 ft | 89 kts | 263° |
| 2026-04-25 01:28 | 33.93569 | -118.39930 | 115 ft | 157 kts | 263° |
| 2026-04-25 01:28 | 33.93406 | -118.41443 | 245 ft | 195 kts | 263° |
| 2026-04-25 01:28 | 33.93242 | -118.43091 | 773 ft | 202 kts | 262° |
| 2026-04-25 01:29 | 33.93060 | -118.44783 | 1390 ft | 211 kts | 262° |
| 2026-04-25 01:29 | 33.92903 | -118.46534 | 2150 ft | 209 kts | 266° |
| 2026-04-25 01:29 | 33.92846 | -118.48312 | 2509 ft | 217 kts | 267° |
| 2026-04-25 01:29 | 33.92808 | -118.50130 | 2891 ft | 219 kts | 268° |
| 2026-04-25 01:30 | 33.92703 | -118.52034 | 3069 ft | 236 kts | 263° |
| 2026-04-25 01:30 | 33.92527 | -118.54029 | 3465 ft | 243 kts | 263° |
| 2026-04-25 01:30 | 33.92346 | -118.56079 | 3877 ft | 249 kts | 264° |
| 2026-04-25 01:30 | 33.92167 | -118.58175 | 4371 ft | 252 kts | 264° |
| 2026-04-25 01:31 | 33.91989 | -118.60288 | 4906 ft | 256 kts | 264° |
| 2026-04-25 01:31 | 33.91807 | -118.62458 | 4962 ft | 261 kts | 264° |
| 2026-04-25 01:31 | 33.91721 | -118.64591 | 5010 ft | 253 kts | 269° |
| 2026-04-25 01:31 | 33.91720 | -118.66761 | 5023 ft | 264 kts | 270° |
| 2026-04-25 01:32 | 33.91729 | -118.68996 | 5005 ft | 269 kts | 270° |
| 2026-04-25 01:32 | 33.91733 | -118.71248 | 5009 ft | 269 kts | 270° |
| 2026-04-25 01:32 | 33.91733 | -118.73472 | 4995 ft | 267 kts | 269° |
| 2026-04-25 01:32 | 33.91727 | -118.75714 | 5004 ft | 268 kts | 269° |
| 2026-04-25 01:33 | 33.91720 | -118.77968 | 5134 ft | 270 kts | 270° |
| 2026-04-25 01:33 | 33.91711 | -118.80203 | 5853 ft | 266 kts | 270° |
| 2026-04-25 01:33 | 33.91700 | -118.82425 | 6457 ft | 266 kts | 270° |
| 2026-04-25 01:33 | 33.91714 | -118.84671 | 6968 ft | 268 kts | 272° |
| 2026-04-25 01:34 | 33.91783 | -118.86914 | 7498 ft | 270 kts | 272° |
| 2026-04-25 01:34 | 33.91860 | -118.89181 | 8026 ft | 272 kts | 272° |
| 2026-04-25 01:34 | 33.91935 | -118.91466 | 8545 ft | 274 kts | 272° |
| 2026-04-25 01:34 | 33.92007 | -118.93758 | 9092 ft | 275 kts | 272° |
| 2026-04-25 01:35 | 33.92076 | -118.96061 | 9621 ft | 276 kts | 272° |
| 2026-04-25 01:35 | 33.92143 | -118.98380 | 10139 ft | 277 kts | 272° |
| 2026-04-25 01:35 | 33.92229 | -119.00726 | 10460 ft | 283 kts | 277° |
| 2026-04-25 01:35 | 33.92864 | -119.03013 | 10583 ft | 297 kts | 300° |
| 2026-04-25 01:36 | 33.94002 | -119.05160 | 10725 ft | 313 kts | 301° |
| 2026-04-25 01:36 | 33.95201 | -119.07439 | 10864 ft | 330 kts | 300° |
| 2026-04-25 01:36 | 33.96456 | -119.09846 | 11010 ft | 348 kts | 300° |
| 2026-04-25 01:36 | 33.97760 | -119.12361 | 11351 ft | 359 kts | 300° |
| 2026-04-25 01:37 | 33.99073 | -119.14901 | 11878 ft | 364 kts | 300° |
| 2026-04-25 01:37 | 34.00422 | -119.17496 | 12477 ft | 365 kts | 302° |
| 2026-04-25 01:37 | 34.02121 | -119.19794 | 12973 ft | 372 kts | 320° |
| 2026-04-25 01:37 | 34.04257 | -119.21589 | 13425 ft | 377 kts | 322° |
| 2026-04-25 01:38 | 34.06431 | -119.23390 | 13993 ft | 380 kts | 322° |
| 2026-04-25 01:38 | 34.08601 | -119.25213 | 14613 ft | 381 kts | 321° |
| 2026-04-25 01:38 | 34.10770 | -119.27053 | 15162 ft | 383 kts | 321° |
| 2026-04-25 01:38 | 34.12952 | -119.28918 | 15695 ft | 386 kts | 321° |
| 2026-04-25 01:39 | 34.15147 | -119.30802 | 16212 ft | 388 kts | 320° |
| 2026-04-25 01:39 | 34.17357 | -119.32703 | 16759 ft | 391 kts | 320° |
| 2026-04-25 01:39 | 34.19572 | -119.34613 | 17294 ft | 393 kts | 320° |
| 2026-04-25 01:39 | 34.21807 | -119.36541 | 17829 ft | 395 kts | 320° |
| 2026-04-25 01:40 | 34.24054 | -119.38482 | 18336 ft | 397 kts | 319° |
| 2026-04-25 01:40 | 34.26284 | -119.40408 | 18800 ft | 399 kts | 319° |
| 2026-04-25 01:40 | 34.28550 | -119.42367 | 19281 ft | 400 kts | 319° |
| 2026-04-25 01:40 | 34.30812 | -119.44323 | 19771 ft | 401 kts | 319° |
| 2026-04-25 01:41 | 34.33090 | -119.46296 | 20212 ft | 403 kts | 319° |
| 2026-04-25 01:41 | 34.35383 | -119.48282 | 20667 ft | 405 kts | 319° |
| 2026-04-25 01:41 | 34.37676 | -119.50270 | 21124 ft | 406 kts | 319° |
| 2026-04-25 01:41 | 34.39974 | -119.52263 | 21572 ft | 408 kts | 318° |
| 2026-04-25 01:42 | 34.42147 | -119.54431 | 21985 ft | 402 kts | 309° |
| 2026-04-25 01:42 | 34.44000 | -119.56962 | 22373 ft | 402 kts | 305° |
| 2026-04-25 01:42 | 34.45788 | -119.59568 | 22808 ft | 403 kts | 305° |
| 2026-04-25 01:42 | 34.47572 | -119.62199 | 23270 ft | 404 kts | 304° |
| 2026-04-25 01:43 | 34.49371 | -119.64837 | 23709 ft | 406 kts | 305° |
| 2026-04-25 01:43 | 34.51188 | -119.67475 | 24076 ft | 408 kts | 305° |
| 2026-04-25 01:43 | 34.53021 | -119.70116 | 24416 ft | 410 kts | 305° |
| 2026-04-25 01:43 | 34.54867 | -119.72762 | 24761 ft | 412 kts | 305° |
| 2026-04-25 01:44 | 34.56729 | -119.75418 | 25053 ft | 414 kts | 305° |
| 2026-04-25 01:44 | 34.58581 | -119.78055 | 25368 ft | 417 kts | 305° |
| 2026-04-25 01:44 | 34.60464 | -119.80739 | 25741 ft | 418 kts | 305° |
| 2026-04-25 01:44 | 34.62352 | -119.83434 | 26103 ft | 419 kts | 305° |
| 2026-04-25 01:45 | 34.64248 | -119.86141 | 26472 ft | 421 kts | 305° |
| 2026-04-25 01:45 | 34.66155 | -119.88864 | 26816 ft | 423 kts | 305° |
| 2026-04-25 01:45 | 34.68066 | -119.91597 | 27155 ft | 425 kts | 305° |
| 2026-04-25 01:45 | 34.69984 | -119.94341 | 27496 ft | 427 kts | 305° |
| 2026-04-25 01:46 | 34.71910 | -119.97100 | 27820 ft | 429 kts | 305° |
| 2026-04-25 01:46 | 34.73855 | -119.99890 | 27901 ft | 434 kts | 305° |
| 2026-04-25 01:46 | 34.75783 | -120.02654 | 27950 ft | 435 kts | 305° |
| 2026-04-25 01:46 | 34.77749 | -120.05477 | 27961 ft | 438 kts | 305° |
| 2026-04-25 01:47 | 34.79716 | -120.08298 | 27962 ft | 437 kts | 305° |
| 2026-04-25 01:47 | 34.81692 | -120.11140 | 27976 ft | 441 kts | 305° |
| 2026-04-25 01:47 | 34.83676 | -120.13996 | 27975 ft | 442 kts | 305° |
| 2026-04-25 01:47 | 34.84994 | -120.15893 | 27980 ft | 444 kts | 305° |
| 2026-04-25 01:48 | 34.86996 | -120.18779 | 27988 ft | 447 kts | 305° |
| 2026-04-25 01:48 | 34.89008 | -120.21683 | 27997 ft | 448 kts | 305° |
| 2026-04-25 01:48 | 34.91017 | -120.24583 | 27990 ft | 448 kts | 305° |
| 2026-04-25 01:48 | 34.93029 | -120.27490 | 28000 ft | 449 kts | 305° |
| 2026-04-25 01:49 | 34.95699 | -120.31347 | 27986 ft | 449 kts | 305° |
| 2026-04-25 01:49 | 34.97059 | -120.33312 | 27986 ft | 448 kts | 305° |
| 2026-04-25 01:49 | 34.99064 | -120.36213 | 27998 ft | 447 kts | 305° |
| 2026-04-25 01:49 | 35.01067 | -120.39114 | 27986 ft | 447 kts | 305° |
| 2026-04-25 01:50 | 35.03064 | -120.42013 | 27991 ft | 446 kts | 305° |
| 2026-04-25 01:50 | 35.05032 | -120.44869 | 27991 ft | 445 kts | 305° |
| 2026-04-25 01:50 | 35.07022 | -120.47762 | 27989 ft | 445 kts | 305° |
| 2026-04-25 01:50 | 35.09009 | -120.50651 | 27985 ft | 444 kts | 305° |
| 2026-04-25 01:51 | 35.10997 | -120.53546 | 27984 ft | 444 kts | 305° |
| 2026-04-25 01:51 | 35.12983 | -120.56438 | 27984 ft | 444 kts | 305° |
| 2026-04-25 01:51 | 35.14979 | -120.59349 | 27974 ft | 444 kts | 305° |
| 2026-04-25 01:51 | 35.16961 | -120.62242 | 27984 ft | 444 kts | 305° |
| 2026-04-25 01:52 | 35.18921 | -120.65104 | 27986 ft | 444 kts | 305° |
| 2026-04-25 01:52 | 35.20902 | -120.67999 | 27986 ft | 444 kts | 305° |
| 2026-04-25 01:52 | 35.22911 | -120.70938 | 27986 ft | 444 kts | 305° |
| 2026-04-25 01:52 | 35.24868 | -120.73803 | 27984 ft | 444 kts | 305° |
| 2026-04-25 01:53 | 35.26852 | -120.76712 | 27981 ft | 445 kts | 305° |
| 2026-04-25 01:53 | 35.28835 | -120.79619 | 27987 ft | 445 kts | 305° |
| 2026-04-25 01:53 | 35.30819 | -120.82531 | 27983 ft | 446 kts | 305° |
| 2026-04-25 01:53 | 35.32805 | -120.85449 | 27982 ft | 446 kts | 305° |
| 2026-04-25 01:54 | 35.34797 | -120.88378 | 27982 ft | 446 kts | 305° |
| 2026-04-25 01:54 | 35.36783 | -120.91300 | 27979 ft | 446 kts | 305° |
| 2026-04-25 01:54 | 35.38768 | -120.94224 | 27983 ft | 446 kts | 305° |
| 2026-04-25 01:54 | 35.40754 | -120.97150 | 27984 ft | 446 kts | 305° |
| 2026-04-25 01:55 | 35.42738 | -121.00078 | 27981 ft | 446 kts | 305° |
| 2026-04-25 01:55 | 35.44720 | -121.03005 | 27980 ft | 446 kts | 305° |
| 2026-04-25 01:55 | 35.46703 | -121.05934 | 27981 ft | 446 kts | 305° |
| 2026-04-25 01:55 | 35.48687 | -121.08867 | 27983 ft | 446 kts | 305° |
| 2026-04-25 01:56 | 35.50688 | -121.11775 | 27981 ft | 446 kts | 306° |
| 2026-04-25 01:56 | 35.52682 | -121.14637 | 27980 ft | 446 kts | 306° |
| 2026-04-25 01:56 | 35.54705 | -121.17530 | 27979 ft | 446 kts | 306° |
| 2026-04-25 01:56 | 35.56726 | -121.20423 | 27982 ft | 446 kts | 306° |
| 2026-04-25 01:57 | 35.60766 | -121.26228 | 27983 ft | 446 kts | 306° |
| 2026-04-25 01:57 | 35.62778 | -121.29130 | 27985 ft | 446 kts | 306° |
| 2026-04-25 01:57 | 35.64790 | -121.32035 | 27986 ft | 446 kts | 306° |
| 2026-04-25 01:58 | 35.66804 | -121.34946 | 27981 ft | 446 kts | 306° |
| 2026-04-25 01:58 | 35.68812 | -121.37851 | 27984 ft | 446 kts | 306° |
| 2026-04-25 01:58 | 35.70826 | -121.40768 | 27981 ft | 446 kts | 306° |
| 2026-04-25 01:58 | 35.72810 | -121.43644 | 27984 ft | 446 kts | 306° |
| 2026-04-25 01:59 | 35.74817 | -121.46555 | 27981 ft | 446 kts | 306° |
| 2026-04-25 01:59 | 35.76825 | -121.49470 | 27984 ft | 446 kts | 306° |
| 2026-04-25 01:59 | 35.78832 | -121.52386 | 27985 ft | 446 kts | 306° |
| 2026-04-25 01:59 | 35.80838 | -121.55304 | 27986 ft | 446 kts | 306° |
| 2026-04-25 02:00 | 35.82845 | -121.58225 | 27984 ft | 446 kts | 306° |
| 2026-04-25 02:00 | 35.84852 | -121.61148 | 27989 ft | 446 kts | 306° |
| 2026-04-25 02:00 | 35.86856 | -121.64070 | 27991 ft | 446 kts | 306° |
| 2026-04-25 02:00 | 35.88859 | -121.66993 | 27991 ft | 446 kts | 306° |
| 2026-04-25 02:01 | 35.90863 | -121.69921 | 27990 ft | 446 kts | 306° |
| 2026-04-25 02:01 | 35.92873 | -121.72860 | 27992 ft | 446 kts | 306° |
| 2026-04-25 02:01 | 35.94877 | -121.75790 | 27998 ft | 446 kts | 306° |
| 2026-04-25 02:01 | 35.96898 | -121.78706 | 27997 ft | 448 kts | 308° |
| 2026-04-25 02:02 | 35.99160 | -121.81378 | 27993 ft | 452 kts | 315° |
| 2026-04-25 02:02 | 36.04239 | -121.85962 | 28002 ft | 459 kts | 323° |
| 2026-04-25 02:03 | 36.09933 | -121.89638 | 28010 ft | 463 kts | 327° |
| 2026-04-25 02:03 | 36.12816 | -121.91402 | 28000 ft | 463 kts | 327° |
| 2026-04-25 02:03 | 36.15700 | -121.93167 | 28008 ft | 462 kts | 327° |
| 2026-04-25 02:04 | 36.21466 | -121.96731 | 28009 ft | 462 kts | 327° |
| 2026-04-25 02:04 | 36.27208 | -122.00322 | 28020 ft | 462 kts | 327° |
| 2026-04-25 02:05 | 36.32939 | -122.03926 | 28028 ft | 462 kts | 327° |
| 2026-04-25 02:05 | 36.38675 | -122.07541 | 28027 ft | 462 kts | 327° |
| 2026-04-25 02:06 | 36.44378 | -122.11139 | 28026 ft | 463 kts | 327° |
| 2026-04-25 02:06 | 36.50123 | -122.14768 | 28024 ft | 463 kts | 327° |
| 2026-04-25 02:07 | 36.55873 | -122.18407 | 28023 ft | 463 kts | 327° |
| 2026-04-25 02:07 | 36.61620 | -122.22050 | 28023 ft | 464 kts | 327° |
| 2026-04-25 02:08 | 36.67374 | -122.25703 | 28022 ft | 464 kts | 327° |
| 2026-04-25 02:08 | 36.73130 | -122.29364 | 28024 ft | 465 kts | 327° |
| 2026-04-25 02:09 | 36.78857 | -122.33014 | 28017 ft | 466 kts | 327° |
| 2026-04-25 02:09 | 36.84643 | -122.36706 | 28016 ft | 467 kts | 327° |
| 2026-04-25 02:10 | 36.90435 | -122.40409 | 28012 ft | 468 kts | 327° |
| 2026-04-25 02:10 | 36.96242 | -122.44128 | 28003 ft | 469 kts | 327° |
| 2026-04-25 02:11 | 37.02059 | -122.47859 | 28002 ft | 470 kts | 328° |
| 2026-04-25 02:11 | 37.04935 | -122.49706 | 27990 ft | 470 kts | 328° |
| 2026-04-25 02:11 | 37.07848 | -122.51579 | 27986 ft | 471 kts | 328° |
| 2026-04-25 02:11 | 37.10765 | -122.53456 | 27984 ft | 471 kts | 328° |
| 2026-04-25 02:12 | 37.13682 | -122.55335 | 27997 ft | 471 kts | 328° |
| 2026-04-25 02:12 | 37.16601 | -122.57217 | 27992 ft | 472 kts | 328° |
| 2026-04-25 02:12 | 37.19526 | -122.59104 | 27989 ft | 472 kts | 328° |
| 2026-04-25 02:12 | 37.22453 | -122.60994 | 27987 ft | 473 kts | 328° |
| 2026-04-25 02:13 | 37.25385 | -122.62889 | 27997 ft | 474 kts | 328° |
| 2026-04-25 02:13 | 37.28317 | -122.64785 | 27996 ft | 474 kts | 328° |
| 2026-04-25 02:13 | 37.31275 | -122.66628 | 27983 ft | 477 kts | 332° |
| 2026-04-25 02:13 | 37.34351 | -122.68214 | 27997 ft | 478 kts | 334° |
| 2026-04-25 02:14 | 37.37418 | -122.69726 | 28000 ft | 480 kts | 334° |
| 2026-04-25 02:14 | 37.40530 | -122.71249 | 27986 ft | 480 kts | 334° |
| 2026-04-25 02:14 | 37.43646 | -122.72778 | 27988 ft | 481 kts | 334° |
| 2026-04-25 02:14 | 37.46770 | -122.74322 | 27988 ft | 482 kts | 334° |
| 2026-04-25 02:15 | 37.49895 | -122.75875 | 27993 ft | 482 kts | 334° |
| 2026-04-25 02:15 | 37.53029 | -122.77441 | 27991 ft | 483 kts | 334° |
| 2026-04-25 02:15 | 37.56153 | -122.79006 | 27989 ft | 484 kts | 334° |
| 2026-04-25 02:15 | 37.59279 | -122.80575 | 27989 ft | 484 kts | 334° |
| 2026-04-25 02:16 | 37.62416 | -122.82151 | 27989 ft | 485 kts | 335° |
| 2026-04-25 02:16 | 37.65551 | -122.83727 | 27988 ft | 486 kts | 335° |
| 2026-04-25 02:16 | 37.68695 | -122.85309 | 27984 ft | 486 kts | 335° |
| 2026-04-25 02:16 | 37.71797 | -122.86870 | 27982 ft | 486 kts | 335° |
| 2026-04-25 02:17 | 37.74940 | -122.88454 | 27979 ft | 487 kts | 335° |
| 2026-04-25 02:17 | 37.78087 | -122.90040 | 27975 ft | 487 kts | 335° |
| 2026-04-25 02:17 | 37.81237 | -122.91630 | 27974 ft | 487 kts | 335° |
| 2026-04-25 02:17 | 37.84379 | -122.93218 | 27978 ft | 486 kts | 335° |
| 2026-04-25 02:18 | 37.87526 | -122.94809 | 27977 ft | 486 kts | 335° |
| 2026-04-25 02:18 | 37.90672 | -122.96401 | 27977 ft | 486 kts | 335° |
| 2026-04-25 02:18 | 37.93815 | -122.97994 | 27971 ft | 486 kts | 335° |
| 2026-04-25 02:18 | 37.96952 | -122.99585 | 27972 ft | 486 kts | 335° |
| 2026-04-25 02:19 | 38.00090 | -123.01178 | 27972 ft | 486 kts | 335° |
| 2026-04-25 02:19 | 38.03226 | -123.02771 | 27970 ft | 486 kts | 335° |
| 2026-04-25 02:19 | 38.06364 | -123.04367 | 27963 ft | 486 kts | 335° |
| 2026-04-25 02:19 | 38.09505 | -123.05966 | 27966 ft | 486 kts | 335° |
| 2026-04-25 02:20 | 38.12642 | -123.07564 | 27962 ft | 486 kts | 335° |
| 2026-04-25 02:20 | 38.15780 | -123.09164 | 27963 ft | 486 kts | 335° |
| 2026-04-25 02:20 | 38.18917 | -123.10765 | 27958 ft | 486 kts | 335° |
| 2026-04-25 02:20 | 38.21994 | -123.12400 | 27953 ft | 485 kts | 333° |
| 2026-04-25 02:21 | 38.24981 | -123.14374 | 27944 ft | 483 kts | 326° |
| 2026-04-25 02:21 | 38.27828 | -123.16639 | 27962 ft | 481 kts | 325° |
| 2026-04-25 02:21 | 38.30649 | -123.18930 | 27958 ft | 482 kts | 325° |
| 2026-04-25 02:21 | 38.33474 | -123.21228 | 27957 ft | 482 kts | 325° |
| 2026-04-25 02:22 | 38.36303 | -123.23521 | 27954 ft | 482 kts | 325° |
| 2026-04-25 02:22 | 38.39146 | -123.25813 | 27951 ft | 483 kts | 326° |
| 2026-04-25 02:22 | 38.41993 | -123.28100 | 27947 ft | 483 kts | 326° |
| 2026-04-25 02:22 | 38.44838 | -123.30380 | 27947 ft | 483 kts | 326° |
| 2026-04-25 02:23 | 38.47683 | -123.32661 | 27949 ft | 483 kts | 326° |
| 2026-04-25 02:23 | 38.50532 | -123.34945 | 27949 ft | 483 kts | 326° |
| 2026-04-25 02:23 | 38.53378 | -123.37230 | 27947 ft | 483 kts | 326° |
| 2026-04-25 02:23 | 38.56222 | -123.39515 | 27950 ft | 483 kts | 326° |
| 2026-04-25 02:24 | 38.59073 | -123.41810 | 27952 ft | 483 kts | 326° |
| 2026-04-25 02:24 | 38.61917 | -123.44101 | 27949 ft | 483 kts | 326° |
| 2026-04-25 02:24 | 38.64762 | -123.46396 | 27953 ft | 483 kts | 326° |
| 2026-04-25 02:24 | 38.67607 | -123.48693 | 27953 ft | 483 kts | 326° |
| 2026-04-25 02:25 | 38.70415 | -123.50961 | 27956 ft | 483 kts | 326° |
| 2026-04-25 02:25 | 38.73260 | -123.53262 | 27956 ft | 483 kts | 326° |
| 2026-04-25 02:25 | 38.76108 | -123.55567 | 27957 ft | 484 kts | 326° |
| 2026-04-25 02:25 | 38.78957 | -123.57876 | 27957 ft | 483 kts | 326° |
| 2026-04-25 02:26 | 38.81798 | -123.60180 | 27964 ft | 483 kts | 326° |
| 2026-04-25 02:26 | 38.84641 | -123.62489 | 27963 ft | 484 kts | 326° |
| 2026-04-25 02:26 | 38.87488 | -123.64803 | 27957 ft | 484 kts | 326° |
| 2026-04-25 02:26 | 38.90336 | -123.67120 | 27959 ft | 484 kts | 326° |
| 2026-04-25 02:27 | 38.93179 | -123.69434 | 27962 ft | 484 kts | 326° |
| 2026-04-25 02:27 | 38.95977 | -123.71748 | 27965 ft | 482 kts | 323° |
| 2026-04-25 02:27 | 38.98540 | -123.74495 | 27961 ft | 480 kts | 313° |
| 2026-04-25 02:27 | 39.00719 | -123.77727 | 27982 ft | 478 kts | 305° |
| 2026-04-25 02:28 | 39.02534 | -123.81295 | 27973 ft | 476 kts | 296° |
| 2026-04-25 02:28 | 39.03990 | -123.85104 | 27987 ft | 475 kts | 294° |
| 2026-04-25 02:28 | 39.05411 | -123.88955 | 27981 ft | 476 kts | 294° |
| 2026-04-25 02:28 | 39.06830 | -123.92817 | 27982 ft | 477 kts | 294° |
| 2026-04-25 02:29 | 39.08254 | -123.96673 | 27981 ft | 477 kts | 294° |
| 2026-04-25 02:29 | 39.09690 | -124.00532 | 27984 ft | 478 kts | 294° |
| 2026-04-25 02:29 | 39.11132 | -124.04383 | 27983 ft | 478 kts | 294° |
| 2026-04-25 02:29 | 39.12581 | -124.08240 | 27984 ft | 478 kts | 294° |
| 2026-04-25 02:30 | 39.14032 | -124.12096 | 27983 ft | 478 kts | 294° |
| 2026-04-25 02:30 | 39.15484 | -124.15957 | 27982 ft | 478 kts | 294° |
| 2026-04-25 02:30 | 39.16911 | -124.19756 | 27980 ft | 477 kts | 294° |
| 2026-04-25 02:30 | 39.18356 | -124.23606 | 27984 ft | 477 kts | 294° |
| 2026-04-25 02:31 | 39.19797 | -124.27453 | 27983 ft | 477 kts | 294° |
| 2026-04-25 02:31 | 39.21238 | -124.31305 | 27983 ft | 476 kts | 294° |
| 2026-04-25 02:31 | 39.22676 | -124.35154 | 27984 ft | 476 kts | 294° |
| 2026-04-25 02:31 | 39.24112 | -124.39003 | 27986 ft | 476 kts | 294° |
| 2026-04-25 02:32 | 39.25546 | -124.42852 | 27985 ft | 476 kts | 294° |
| 2026-04-25 02:32 | 39.26981 | -124.46712 | 27986 ft | 476 kts | 294° |
| 2026-04-25 02:32 | 39.28410 | -124.50559 | 27988 ft | 476 kts | 294° |
| 2026-04-25 02:32 | 39.29840 | -124.54413 | 27985 ft | 476 kts | 294° |
| 2026-04-25 02:33 | 39.31268 | -124.58267 | 27988 ft | 476 kts | 294° |
| 2026-04-25 02:33 | 39.32695 | -124.62123 | 27992 ft | 476 kts | 294° |
| 2026-04-25 02:33 | 39.34105 | -124.65935 | 27988 ft | 476 kts | 294° |
| 2026-04-25 02:33 | 39.35531 | -124.69797 | 27993 ft | 476 kts | 294° |
| 2026-04-25 02:34 | 39.36957 | -124.73666 | 27992 ft | 477 kts | 294° |
| 2026-04-25 02:34 | 39.38383 | -124.77540 | 27991 ft | 477 kts | 293° |
| 2026-04-25 02:34 | 39.39810 | -124.81421 | 27995 ft | 477 kts | 293° |
| 2026-04-25 02:34 | 39.41234 | -124.85298 | 27997 ft | 477 kts | 294° |
| 2026-04-25 02:35 | 39.42657 | -124.89177 | 27999 ft | 478 kts | 293° |
| 2026-04-25 02:35 | 39.44079 | -124.93061 | 27996 ft | 478 kts | 293° |
| 2026-04-25 02:35 | 39.45022 | -124.95637 | 27995 ft | 478 kts | 293° |
| 2026-04-25 02:35 | 39.46442 | -124.99524 | 28000 ft | 478 kts | 293° |
| 2026-04-25 02:36 | 39.47861 | -125.03416 | 28000 ft | 478 kts | 293° |
| 2026-04-25 02:36 | 39.50699 | -125.11212 | 28003 ft | 479 kts | 293° |
| 2026-04-25 02:37 | 39.53538 | -125.19023 | 28004 ft | 479 kts | 293° |
| 2026-04-25 02:37 | 39.56371 | -125.26840 | 28010 ft | 479 kts | 293° |
| 2026-04-25 02:38 | 39.59183 | -125.34621 | 28011 ft | 480 kts | 293° |
| 2026-04-25 02:38 | 39.62008 | -125.42458 | 28013 ft | 480 kts | 293° |
| 2026-04-25 02:39 | 39.64836 | -125.50330 | 28014 ft | 481 kts | 293° |
| 2026-04-25 02:39 | 39.67657 | -125.58201 | 28011 ft | 481 kts | 293° |
| 2026-04-25 02:40 | 39.70474 | -125.66080 | 28014 ft | 480 kts | 293° |
| 2026-04-25 02:40 | 39.73264 | -125.73903 | 28028 ft | 480 kts | 293° |
| 2026-04-25 02:41 | 39.76064 | -125.81777 | 28023 ft | 480 kts | 293° |
| 2026-04-25 02:41 | 39.78860 | -125.89669 | 28026 ft | 480 kts | 293° |
| 2026-04-25 02:42 | 39.81651 | -125.97559 | 28029 ft | 481 kts | 292° |
| 2026-04-25 02:42 | 39.84441 | -126.05471 | 28032 ft | 481 kts | 292° |
| 2026-04-25 02:43 | 39.87228 | -126.13395 | 28035 ft | 482 kts | 292° |
| 2026-04-25 02:43 | 39.90016 | -126.21345 | 28036 ft | 482 kts | 292° |
| 2026-04-25 02:44 | 39.92800 | -126.29307 | 28039 ft | 483 kts | 292° |
| 2026-04-25 02:44 | 39.95563 | -126.37225 | 28036 ft | 483 kts | 292° |
| 2026-04-25 02:45 | 39.98341 | -126.45215 | 28038 ft | 483 kts | 293° |
| 2026-04-25 02:45 | 40.01651 | -126.52865 | 28044 ft | 486 kts | 303° |
| 2026-04-25 02:46 | 40.05812 | -126.59789 | 28050 ft | 487 kts | 307° |
| 2026-04-25 02:46 | 40.10048 | -126.66732 | 28489 ft | 489 kts | 306° |
| 2026-04-25 02:46 | 40.12154 | -126.70223 | 28984 ft | 486 kts | 306° |
| 2026-04-25 02:47 | 40.14239 | -126.73701 | 29397 ft | 485 kts | 306° |
| 2026-04-25 02:47 | 40.16315 | -126.77175 | 29755 ft | 485 kts | 305° |
| 2026-04-25 02:47 | 40.18389 | -126.80650 | 29998 ft | 485 kts | 306° |
| 2026-04-25 02:48 | 40.22558 | -126.87648 | 30045 ft | 488 kts | 306° |
| 2026-04-25 02:48 | 40.26734 | -126.94663 | 30047 ft | 489 kts | 307° |
| 2026-04-25 02:49 | 40.30914 | -127.01704 | 30055 ft | 490 kts | 307° |
| 2026-04-25 02:49 | 40.35111 | -127.08771 | 30067 ft | 492 kts | 307° |
| 2026-04-25 02:50 | 40.39295 | -127.15825 | 30060 ft | 493 kts | 308° |
| 2026-04-25 02:50 | 40.43505 | -127.22942 | 30057 ft | 494 kts | 308° |
| 2026-04-25 02:51 | 40.47725 | -127.30094 | 30059 ft | 495 kts | 308° |
| 2026-04-25 02:51 | 40.51946 | -127.37266 | 30069 ft | 496 kts | 309° |
| 2026-04-25 02:52 | 40.56167 | -127.44453 | 30055 ft | 497 kts | 309° |
| 2026-04-25 02:52 | 40.60390 | -127.51659 | 30068 ft | 497 kts | 309° |
| 2026-04-25 02:53 | 40.64587 | -127.58840 | 30069 ft | 498 kts | 309° |
| 2026-04-25 02:53 | 40.68806 | -127.66075 | 30075 ft | 498 kts | 309° |
| 2026-04-25 02:54 | 40.73024 | -127.73327 | 30074 ft | 497 kts | 309° |
| 2026-04-25 02:54 | 40.77228 | -127.80570 | 30070 ft | 497 kts | 310° |
| 2026-04-25 02:55 | 40.81423 | -127.87814 | 30069 ft | 496 kts | 310° |
| 2026-04-25 02:55 | 40.85583 | -127.95014 | 30073 ft | 495 kts | 310° |
| 2026-04-25 02:56 | 40.89759 | -128.02260 | 30080 ft | 495 kts | 310° |
| 2026-04-25 02:56 | 40.93928 | -128.09509 | 30083 ft | 495 kts | 310° |
| 2026-04-25 02:57 | 40.98088 | -128.16760 | 30092 ft | 494 kts | 310° |
| 2026-04-25 02:57 | 41.02242 | -128.24019 | 30091 ft | 494 kts | 310° |
| 2026-04-25 02:58 | 41.06388 | -128.31281 | 30090 ft | 494 kts | 310° |
| 2026-04-25 02:58 | 41.10497 | -128.38493 | 30085 ft | 493 kts | 310° |
| 2026-04-25 02:59 | 41.14620 | -128.45749 | 30089 ft | 492 kts | 309° |
| 2026-04-25 02:59 | 41.18740 | -128.53015 | 30090 ft | 491 kts | 309° |
| 2026-04-25 03:00 | 41.22843 | -128.60270 | 30100 ft | 490 kts | 309° |
| 2026-04-25 03:00 | 41.26935 | -128.67521 | 30100 ft | 490 kts | 309° |
| 2026-04-25 03:01 | 41.31020 | -128.74778 | 30102 ft | 489 kts | 309° |
| 2026-04-25 03:01 | 41.35077 | -128.82001 | 30100 ft | 489 kts | 309° |
| 2026-04-25 03:02 | 41.39147 | -128.89266 | 30105 ft | 489 kts | 309° |
| 2026-04-25 03:02 | 41.43209 | -128.96533 | 30106 ft | 489 kts | 309° |
| 2026-04-25 03:03 | 41.47266 | -129.03808 | 30108 ft | 489 kts | 309° |
| 2026-04-25 03:03 | 41.51317 | -129.11090 | 30106 ft | 489 kts | 309° |
| 2026-04-25 03:04 | 41.55337 | -129.18334 | 30105 ft | 489 kts | 309° |
| 2026-04-25 03:04 | 41.59387 | -129.25648 | 30120 ft | 489 kts | 309° |
| 2026-04-25 03:05 | 41.65444 | -129.36621 | 30118 ft | 489 kts | 308° |
| 2026-04-25 03:05 | 41.69481 | -129.43957 | 30116 ft | 489 kts | 308° |
| 2026-04-25 03:06 | 41.73504 | -129.51286 | 30118 ft | 489 kts | 308° |
| 2026-04-25 03:06 | 41.77505 | -129.58591 | 30123 ft | 488 kts | 308° |
| 2026-04-25 03:07 | 41.81517 | -129.65935 | 30127 ft | 488 kts | 308° |
| 2026-04-25 03:07 | 41.85527 | -129.73292 | 30127 ft | 488 kts | 308° |
| 2026-04-25 03:08 | 41.89530 | -129.80653 | 30126 ft | 487 kts | 308° |
| 2026-04-25 03:08 | 41.93499 | -129.87972 | 30124 ft | 487 kts | 308° |
| 2026-04-25 03:09 | 41.97487 | -129.95341 | 30131 ft | 487 kts | 308° |
| 2026-04-25 03:09 | 42.01659 | -130.02507 | 30136 ft | 485 kts | 315° |
| 2026-04-25 03:10 | 42.06334 | -130.09057 | 30140 ft | 484 kts | 316° |
| 2026-04-25 03:10 | 42.11006 | -130.15542 | 30137 ft | 485 kts | 316° |
| 2026-04-25 03:11 | 42.15678 | -130.22094 | 30141 ft | 485 kts | 316° |
| 2026-04-25 03:11 | 42.20342 | -130.28695 | 30138 ft | 485 kts | 316° |
| 2026-04-25 03:12 | 42.24993 | -130.35302 | 30141 ft | 485 kts | 315° |
| 2026-04-25 03:12 | 42.29642 | -130.41924 | 30146 ft | 485 kts | 315° |
| 2026-04-25 03:13 | 42.34289 | -130.48553 | 30151 ft | 485 kts | 315° |
| 2026-04-25 03:13 | 42.38903 | -130.55150 | 30148 ft | 485 kts | 315° |
| 2026-04-25 03:14 | 42.43551 | -130.61813 | 30152 ft | 485 kts | 315° |
| 2026-04-25 03:14 | 42.48186 | -130.68469 | 30153 ft | 485 kts | 315° |
| 2026-04-25 03:15 | 42.52819 | -130.75141 | 30154 ft | 486 kts | 315° |
| 2026-04-25 03:15 | 42.57417 | -130.81778 | 30163 ft | 486 kts | 315° |
| 2026-04-25 03:16 | 42.62048 | -130.88479 | 30167 ft | 486 kts | 315° |
| 2026-04-25 03:16 | 42.66679 | -130.95190 | 30167 ft | 486 kts | 315° |
| 2026-04-25 03:17 | 42.71301 | -131.01908 | 30165 ft | 487 kts | 315° |
| 2026-04-25 03:17 | 42.75927 | -131.08645 | 30165 ft | 487 kts | 315° |
| 2026-04-25 03:18 | 42.80543 | -131.15387 | 30172 ft | 487 kts | 315° |
| 2026-04-25 03:18 | 42.85169 | -131.22155 | 30167 ft | 487 kts | 315° |
| 2026-04-25 03:19 | 42.89752 | -131.28878 | 30178 ft | 487 kts | 315° |
| 2026-04-25 03:19 | 42.94359 | -131.35654 | 30181 ft | 487 kts | 315° |
| 2026-04-25 03:20 | 42.98971 | -131.42447 | 30179 ft | 487 kts | 315° |
| 2026-04-25 03:20 | 43.03573 | -131.49248 | 30182 ft | 487 kts | 314° |
| 2026-04-25 03:21 | 43.08173 | -131.56057 | 30190 ft | 487 kts | 315° |
| 2026-04-25 03:21 | 43.12766 | -131.62877 | 30189 ft | 487 kts | 314° |
| 2026-04-25 03:22 | 43.17356 | -131.69711 | 30190 ft | 487 kts | 314° |
| 2026-04-25 03:22 | 43.21913 | -131.76506 | 30192 ft | 487 kts | 314° |
| 2026-04-25 03:23 | 43.26499 | -131.83364 | 30196 ft | 487 kts | 314° |
| 2026-04-25 03:23 | 43.31084 | -131.90236 | 30197 ft | 487 kts | 314° |
| 2026-04-25 03:24 | 43.34890 | -131.95952 | 30202 ft | 487 kts | 314° |
| 2026-04-25 03:24 | 43.39466 | -132.02841 | 30205 ft | 488 kts | 314° |
| 2026-04-25 03:25 | 43.44039 | -132.09738 | 30207 ft | 488 kts | 314° |
| 2026-04-25 03:25 | 43.48577 | -132.16603 | 30213 ft | 488 kts | 314° |
| 2026-04-25 03:26 | 43.53144 | -132.23524 | 30210 ft | 488 kts | 314° |
| 2026-04-25 03:26 | 43.57707 | -132.30461 | 30218 ft | 488 kts | 314° |
| 2026-04-25 03:27 | 43.62262 | -132.37403 | 30213 ft | 488 kts | 314° |
| 2026-04-25 03:27 | 43.66817 | -132.44361 | 30225 ft | 488 kts | 314° |
| 2026-04-25 03:28 | 43.71336 | -132.51281 | 30229 ft | 488 kts | 314° |
| 2026-04-25 03:28 | 43.75885 | -132.58261 | 30228 ft | 488 kts | 314° |
| 2026-04-25 03:29 | 43.80427 | -132.65250 | 30229 ft | 488 kts | 314° |
| 2026-04-25 03:29 | 43.84962 | -132.72248 | 30234 ft | 488 kts | 314° |
| 2026-04-25 03:30 | 43.89501 | -132.79268 | 30233 ft | 488 kts | 314° |
| 2026-04-25 03:30 | 43.94035 | -132.86293 | 30242 ft | 488 kts | 314° |
| 2026-04-25 03:31 | 43.98561 | -132.93325 | 30241 ft | 488 kts | 314° |
| 2026-04-25 03:31 | 44.03057 | -133.00329 | 30251 ft | 488 kts | 313° |
| 2026-04-25 03:32 | 44.07576 | -133.07384 | 30249 ft | 488 kts | 313° |
| 2026-04-25 03:32 | 44.12094 | -133.14457 | 30257 ft | 489 kts | 313° |
| 2026-04-25 03:33 | 44.16607 | -133.21539 | 30259 ft | 489 kts | 314° |
| 2026-04-25 03:33 | 44.21117 | -133.28637 | 30259 ft | 489 kts | 313° |
| 2026-04-25 03:34 | 44.25620 | -133.35737 | 30262 ft | 489 kts | 313° |
| 2026-04-25 03:34 | 44.30120 | -133.42854 | 30262 ft | 489 kts | 313° |
| 2026-04-25 03:35 | 44.34617 | -133.49980 | 30276 ft | 489 kts | 313° |
| 2026-04-25 03:35 | 44.39107 | -133.57115 | 30273 ft | 489 kts | 313° |
| 2026-04-25 03:36 | 44.43561 | -133.64213 | 30278 ft | 489 kts | 313° |
| 2026-04-25 03:36 | 44.48038 | -133.71369 | 30281 ft | 489 kts | 313° |
| 2026-04-25 03:37 | 44.52524 | -133.78545 | 30287 ft | 489 kts | 313° |
| 2026-04-25 03:37 | 44.56996 | -133.85727 | 30286 ft | 489 kts | 313° |